Arroyo Grande, California
Current Conditions -  °F | °C
As of 1:56 AM on Wednesday 22 Oct 2014 (Local Time) from KSBP Reporting Station
Clear Clear  
Wind Chill: 62°   Ceiling: Unl
Heat Index: 62°   Visibility: 10mi
Dew Point: 38°   Wind: 6mph
Humidity: 41%   Direction: 200°SSW
Pressure: 29.95"   Gusts: NA
Location:  35.12°N, 120.57°W
Report Text: KSBP 220856Z AUTO 20005KT 10SM CLR 17/03 A2995 RMK AO2 SLP140 T01670033 58003
Loading
Personal Weather Stations






























Interactive Weather Map
Tropical Storm Tracking
New forecast layout! Learn more

10-Day Weather Forecast

Advertisements
Track Severe Weather on mobile